Time;durP1;ratioP1;P1;durP2;ratioP2;P2;SDS_P1;SDS_P2;PMS_P1;PMS_P2;Temp;Humidity;BMP_temperature;BMP_pressure;BME280_temperature;BME280_humidity;BME280_pressure;Samples;Min_cycle;Max_cycle;Signal;HPM_P1;HPM_P2
2021/04/09 00:01:59;;;;;;;38.83;19.55;;;;;;;3.87;61.17;99846.67;257842;1116;116236;-78
2021/04/09 00:07:03;;;;;;;37.50;20.10;;;;;;;3.90;61.07;99855.38;257625;1118;114859;-72
2021/04/09 00:12:06;;;;;;;37.55;19.08;;;;;;;3.93;60.88;99854.45;257914;1117;115243;-71
2021/04/09 00:17:09;;;;;;;35.13;17.93;;;;;;;3.93;60.79;99851.81;256572;1118;115108;-71
2021/04/09 00:22:12;;;;;;;33.35;17.30;;;;;;;3.92;60.74;99850.09;258057;1118;114632;-71
2021/04/09 00:27:15;;;;;;;28.88;15.83;;;;;;;3.88;60.54;99853.70;257754;1117;114781;-80
2021/04/09 00:32:18;;;;;;;28.35;15.78;;;;;;;3.81;60.38;99852.09;257909;1118;114741;-70
2021/04/09 00:37:21;;;;;;;28.40;14.98;;;;;;;3.81;60.59;99854.73;257369;1118;114739;-78
2021/04/09 00:42:24;;;;;;;27.58;15.30;;;;;;;3.77;60.71;99851.27;257948;1117;114818;-70
2021/04/09 00:47:27;;;;;;;28.18;15.58;;;;;;;3.79;60.68;99845.08;257898;1118;114936;-70
2021/04/09 00:52:33;;;;;;;27.25;14.58;;;;;;;3.75;60.50;99845.19;257789;1117;114649;-71
2021/04/09 00:57:36;;;;;;;26.00;13.85;;;;;;;3.74;60.58;99852.22;257654;1118;114779;-71
2021/04/09 01:02:40;;;;;;;22.55;13.08;;;;;;;3.73;60.15;99846.97;258245;1118;114807;-79
2021/04/09 01:07:45;;;;;;;29.33;15.18;;;;;;;3.73;60.33;99852.23;257582;1118;114796;-79
2021/04/09 01:12:49;;;;;;;25.43;14.08;;;;;;;3.71;60.28;99849.65;258071;1117;115480;-79
2021/04/09 01:18:11;;;;;;;22.07;12.10;;;;;;;3.76;60.18;99852.17;257771;1118;115083;-78
2021/04/09 01:23:22;;;;;;;23.78;12.38;;;;;;;3.73;59.98;99845.20;257841;1118;114979;-79
2021/04/09 01:28:47;;;;;;;22.85;12.63;;;;;;;3.65;60.26;99848.91;257933;1118;114604;-78
2021/04/09 01:33:55;;;;;;;23.55;12.30;;;;;;;3.52;60.20;99835.99;258027;1118;114587;-70
2021/04/09 01:39:11;;;;;;;23.20;12.35;;;;;;;3.43;60.18;99843.20;257725;1118;114729;-78
2021/04/09 01:44:17;;;;;;;25.58;13.63;;;;;;;3.37;60.18;99840.72;258036;1118;114943;-70
2021/04/09 01:49:22;;;;;;;23.25;12.78;;;;;;;3.29;60.10;99833.84;257822;1118;114894;-70
2021/04/09 01:54:27;;;;;;;25.68;14.23;;;;;;;3.24;60.60;99845.34;257585;1117;114998;-70
2021/04/09 01:59:32;;;;;;;26.75;12.60;;;;;;;3.16;60.43;99839.34;258188;1118;114778;-69
2021/04/09 02:04:37;;;;;;;25.65;13.53;;;;;;;3.15;60.53;99834.99;258004;1118;114664;-70
2021/04/09 02:09:43;;;;;;;30.80;14.90;;;;;;;3.13;60.69;99832.41;257870;1118;114641;-70
2021/04/09 02:14:46;;;;;;;24.10;13.07;;;;;;;3.18;60.83;99843.69;257702;1117;114866;-78
2021/04/09 02:19:49;;;;;;;24.65;14.15;;;;;;;3.18;60.85;99834.94;257522;1118;114652;-78
2021/04/09 02:24:55;;;;;;;27.73;14.13;;;;;;;3.16;60.69;99840.23;257739;1118;115121;-78
2021/04/09 02:29:59;;;;;;;24.25;13.05;;;;;;;3.14;60.63;99830.64;258131;1117;115281;-78
2021/04/09 02:35:05;;;;;;;23.33;12.23;;;;;;;3.13;60.69;99832.41;257891;1118;114829;-77
2021/04/09 02:40:21;;;;;;;21.48;11.98;;;;;;;3.10;60.61;99832.46;258127;1117;115106;-78
2021/04/09 02:45:25;;;;;;;26.43;12.80;;;;;;;3.11;60.69;99836.81;258080;1118;114499;-77
2021/04/09 02:50:36;;;;;;;15.28;8.53;;;;;;;3.11;60.59;99822.80;258091;1117;114821;-70
2021/04/09 02:55:42;;;;;;;18.48;11.73;;;;;;;3.10;60.67;99824.57;257733;1118;115511;-78
2021/04/09 03:00:49;;;;;;;21.40;11.43;;;;;;;3.06;60.45;99829.02;257877;1118;114966;-77
2021/04/09 03:05:53;;;;;;;23.60;11.53;;;;;;;3.03;60.33;99825.59;257694;1117;115181;-69
2021/04/09 03:10:56;;;;;;;25.80;13.40;;;;;;;3.02;60.73;99816.84;258146;1117;115267;-69
2021/04/09 03:16:00;;;;;;;20.48;12.90;;;;;;;3.03;60.74;99818.56;257789;1118;114930;-70
2021/04/09 03:21:04;;;;;;;21.20;12.13;;;;;;;3.04;60.69;99819.42;256293;1117;115177;-77
2021/04/09 03:26:07;;;;;;;24.90;13.40;;;;;;;3.03;60.49;99821.19;258060;1118;116635;-78
2021/04/09 03:31:10;;;;;;;21.30;12.00;;;;;;;3.01;60.59;99807.19;258214;1117;115188;-77
2021/04/09 03:36:12;;;;;;;21.98;13.73;;;;;;;3.00;60.55;99818.61;257964;1118;115143;-78
2021/04/09 03:41:16;;;;;;;27.23;14.63;;;;;;;2.95;60.24;99812.56;257690;1118;114824;-77
2021/04/09 03:46:19;;;;;;;29.05;14.15;;;;;;;2.84;60.16;99817.16;257745;1118;114815;-70
2021/04/09 03:51:21;;;;;;;27.48;14.90;;;;;;;2.78;60.39;99820.75;257833;1117;115948;-70
2021/04/09 03:56:25;;;;;;;25.47;14.03;;;;;;;2.68;60.82;99821.80;257589;1118;114817;-70
2021/04/09 04:01:29;;;;;;;26.98;14.08;;;;;;;2.58;60.53;99829.01;257980;1118;114846;-70
2021/04/09 04:06:33;;;;;;;28.75;12.98;;;;;;;2.50;60.83;99816.88;257923;1118;115258;-71
2021/04/09 04:11:35;;;;;;;27.35;14.05;;;;;;;2.39;60.79;99824.08;257762;1118;114927;-71
2021/04/09 04:16:38;;;;;;;26.18;14.50;;;;;;;2.34;60.87;99832.01;257726;1117;114955;-71
2021/04/09 04:21:41;;;;;;;22.98;13.25;;;;;;;2.29;61.14;99816.34;257902;1118;114844;-79
2021/04/09 04:26:44;;;;;;;25.80;14.53;;;;;;;2.23;60.92;99829.56;257848;1118;115120;-70
2021/04/09 04:31:46;;;;;;;31.85;15.00;;;;;;;2.20;61.21;99832.23;257934;1117;114581;-79
2021/04/09 04:36:50;;;;;;;31.98;14.80;;;;;;;2.18;61.26;99834.03;257751;1118;114541;-78
2021/04/09 04:41:53;;;;;;;24.15;14.35;;;;;;;2.17;61.79;99832.27;258047;1118;114850;-78
2021/04/09 04:46:55;;;;;;;31.33;14.88;;;;;;;2.18;61.60;99834.03;257541;1117;114734;-79
2021/04/09 04:51:59;;;;;;;28.40;14.75;;;;;;;2.31;61.66;99842.56;257409;1117;114686;-79
2021/04/09 04:57:02;;;;;;;20.65;11.03;;;;;;;2.49;61.67;99831.78;257532;1118;116776;-78
2021/04/09 05:02:05;;;;;;;25.40;11.35;;;;;;;2.65;61.51;99832.40;257703;1110;114643;-78
2021/04/09 05:07:08;;;;;;;18.65;10.80;;;;;;;2.80;61.74;99831.25;257707;1118;114726;-80
2021/04/09 05:12:11;;;;;;;20.15;9.55;;;;;;;2.91;61.41;99829.29;257653;1117;114974;-70
2021/04/09 05:17:13;;;;;;;18.40;9.55;;;;;;;3.03;61.27;99821.19;257763;1117;114714;-71
2021/04/09 05:22:18;;;;;;;16.38;8.75;;;;;;;3.16;61.03;99819.20;257966;1118;114544;-70
2021/04/09 05:27:21;;;;;;;22.93;8.73;;;;;;;3.28;60.92;99824.20;257625;1117;114718;-72
2021/04/09 05:32:25;;;;;;;14.63;8.15;;;;;;;3.41;60.77;99822.20;257775;1118;114656;-70
2021/04/09 05:37:28;;;;;;;15.33;8.20;;;;;;;3.56;60.64;99810.48;257525;1118;114946;-78
2021/04/09 05:42:30;;;;;;;15.93;7.78;;;;;;;3.64;60.10;99815.61;257662;1118;114495;-72
2021/04/09 05:47:33;;;;;;;14.90;7.80;;;;;;;3.73;60.33;99812.75;257905;1117;115681;-70
2021/04/09 05:52:36;;;;;;;13.70;7.20;;;;;;;3.81;59.79;99813.47;257614;1118;114675;-71
2021/04/09 05:57:39;;;;;;;14.40;6.88;;;;;;;3.93;59.81;99813.17;257802;1111;114834;-71
2021/04/09 06:02:42;;;;;;;13.60;6.90;;;;;;;4.03;59.76;99814.70;257893;1117;114556;-70
2021/04/09 06:07:45;;;;;;;15.25;6.88;;;;;;;4.19;59.58;99811.72;257749;1118;114711;-79
2021/04/09 06:12:49;;;;;;;11.20;6.20;;;;;;;4.33;58.89;99803.48;257732;1117;114730;-79
2021/04/09 06:17:52;;;;;;;13.93;6.38;;;;;;;4.44;58.90;99804.08;257885;1117;114580;-71
2021/04/09 06:22:54;;;;;;;12.03;6.23;;;;;;;4.53;58.40;99798.59;257815;1117;114330;-71
2021/04/09 06:27:59;;;;;;;14.83;6.45;;;;;;;4.69;58.14;99796.44;257894;1118;114460;-71
2021/04/09 06:33:01;;;;;;;10.03;6.08;;;;;;;4.81;57.71;99787.33;257880;1118;114758;-72
2021/04/09 06:38:05;;;;;;;14.77;6.00;;;;;;;4.94;57.95;99780.82;257928;1118;114725;-71
2021/04/09 06:43:08;;;;;;;10.35;5.88;;;;;;;5.03;57.22;99784.96;257737;1118;114608;-71
2021/04/09 06:48:11;;;;;;;12.68;6.80;;;;;;;5.15;56.91;99784.64;257670;1112;114763;-80
2021/04/09 06:53:14;;;;;;;14.68;6.18;;;;;;;5.28;56.97;99767.55;257814;1118;114534;-80
2021/04/09 06:58:19;;;;;;;14.53;5.48;;;;;;;5.43;57.14;99768.88;257508;1117;114454;-72
2021/04/09 07:03:22;;;;;;;9.20;5.93;;;;;;;5.57;56.59;99769.35;258028;1117;114738;-72
2021/04/09 07:08:26;;;;;;;12.40;6.25;;;;;;;5.78;56.63;99762.55;257425;1118;114816;-71
2021/04/09 07:13:28;;;;;;;12.73;6.45;;;;;;;5.99;56.42;99770.75;257814;1118;114884;-72
2021/04/09 07:18:54;;;;;;;14.43;5.78;;;;;;;6.13;55.53;99763.24;257592;1119;114666;-72
2021/04/09 07:24:18;;;;;;;;;;;;;;;6.23;55.07;99748.81;257882;1118;114823;-71
2021/04/09 07:29:32;;;;;;;14.10;5.30;;;;;;;6.36;55.42;99744.85;257844;1117;102220;-79
2021/04/09 07:34:49;;;;;;;;;;;;;;;6.56;54.59;99738.03;257700;1117;114590;-79
2021/04/09 07:39:56;;;;;;;;;;;;;;;6.71;54.50;99732.20;257828;1118;101036;-80
2021/04/09 07:45:02;;;;;;;8.18;3.50;;;;;;;6.79;53.40;99735.45;257882;1117;101041;-79
2021/04/09 07:50:11;;;;;;;7.28;3.75;;;;;;;6.91;53.46;99727.98;257734;1118;114721;-79
2021/04/09 07:55:22;;;;;;;8.98;3.93;;;;;;;7.04;53.13;99730.13;257664;1118;114701;-71
2021/04/09 08:00:27;;;;;;;8.10;3.05;;;;;;;7.17;51.71;99717.32;257803;1117;114520;-72
2021/04/09 08:05:30;;;;;;;8.93;3.75;;;;;;;7.23;51.38;99719.71;257803;1118;114427;-80
2021/04/09 08:10:33;;;;;;;7.48;3.33;;;;;;;7.26;51.49;99710.80;257784;1117;115968;-80
2021/04/09 08:15:37;;;;;;;5.08;3.18;;;;;;;7.30;50.33;99702.70;257938;1117;114533;-80
2021/04/09 08:20:42;;;;;;;7.50;2.78;;;;;;;7.39;50.42;99727.09;257762;1118;114537;-79
2021/04/09 08:25:44;;;;;;;8.60;4.50;;;;;;;7.41;50.18;99701.43;257783;1118;114390;-72
2021/04/09 08:30:48;;;;;;;10.70;3.55;;;;;;;7.48;50.49;99706.42;257825;1110;114469;-72
2021/04/09 08:35:52;;;;;;;9.50;3.28;;;;;;;7.61;50.05;99711.22;257485;1119;114677;-73
2021/04/09 08:40:57;;;;;;;5.45;3.13;;;;;;;7.64;48.96;99698.72;257618;1119;114774;-71
2021/04/09 08:46:00;;;;;;;8.48;3.90;;;;;;;7.68;49.38;99695.05;257752;1118;114378;-80
2021/04/09 08:51:05;;;;;;;8.50;3.75;;;;;;;7.75;48.83;99680.64;258016;1117;114317;-79
2021/04/09 08:56:11;;;;;;;8.60;3.20;;;;;;;7.87;48.62;99670.45;257685;1118;114427;-80
2021/04/09 09:01:15;;;;;;;7.00;3.45;;;;;;;7.99;48.78;99668.17;257793;1118;114923;-71
2021/04/09 09:06:41;;;;;;;8.20;3.68;;;;;;;8.09;48.51;99652.75;257623;1118;114309;-79
2021/04/09 09:11:52;;;;;;;12.50;3.50;;;;;;;8.25;48.54;99659.14;257513;1117;114519;-80
2021/04/09 09:16:56;;;;;;;6.03;3.18;;;;;;;8.37;47.52;99649.78;257674;1118;114535;-79
2021/04/09 09:22:14;;;;;;;5.58;3.10;;;;;;;8.52;47.31;99630.59;257539;1112;114226;-79
2021/04/09 09:27:17;;;;;;;8.33;3.38;;;;;;;8.67;46.54;99634.34;257665;1118;114316;-78
2021/04/09 09:32:30;;;;;;;7.20;3.63;;;;;;;8.69;46.48;99619.20;257600;1118;114492;-78
2021/04/09 09:37:35;;;;;;;6.90;3.00;;;;;;;8.77;46.05;99613.56;257845;1118;114332;-71
2021/04/09 09:42:42;;;;;;;9.00;3.57;;;;;;;8.86;46.43;99606.95;257719;1118;114407;-80
2021/04/09 09:47:45;;;;;;;4.98;2.73;;;;;;;9.02;45.81;99601.81;258008;1118;114701;-79
2021/04/09 09:52:57;;;;;;;5.03;2.50;;;;;;;9.13;45.96;99589.74;257493;1117;114638;-80
2021/04/09 09:58:22;;;;;;;6.68;3.38;;;;;;;9.31;46.24;99580.06;257686;1118;114215;-79
2021/04/09 10:03:35;;;;;;;5.98;3.05;;;;;;;9.52;45.57;99580.81;257652;1118;116953;-79
2021/04/09 10:08:39;;;;;;;6.23;2.98;;;;;;;9.70;45.15;99561.28;257483;1118;114541;-80
2021/04/09 10:13:43;;;;;;;7.33;2.63;;;;;;;9.89;44.76;99563.03;257716;1117;114500;-80
2021/04/09 10:18:51;;;;;;;6.05;2.98;;;;;;;10.02;44.38;99540.20;257717;1118;114441;-80
2021/04/09 10:24:09;;;;;;;5.70;2.53;;;;;;;10.22;44.71;99527.64;257739;1118;114599;-78
2021/04/09 10:29:20;;;;;;;8.18;2.85;;;;;;;10.43;44.38;99521.23;257812;1118;114630;-69
2021/04/09 10:34:30;;;;;;;5.88;2.35;;;;;;;10.61;43.61;99508.73;257496;1117;115231;-79
2021/04/09 10:39:33;;;;;;;5.33;2.75;;;;;;;10.80;43.78;99500.56;257904;1118;114845;-78
2021/04/09 10:44:37;;;;;;;3.93;2.38;;;;;;;10.97;43.03;99510.28;257529;1116;114684;-79
2021/04/09 10:49:42;;;;;;;4.95;2.10;;;;;;;11.08;42.68;99489.25;257865;1117;115261;-71
2021/04/09 10:54:47;;;;;;;3.88;2.10;;;;;;;11.26;42.56;99474.86;257504;1118;115266;-79
2021/04/09 10:59:56;;;;;;;5.00;2.20;;;;;;;11.48;42.36;99468.27;257787;1118;114618;-78
2021/04/09 11:05:01;;;;;;;4.35;2.18;;;;;;;11.77;42.49;99467.41;257775;1118;114554;-80
2021/04/09 11:10:04;;;;;;;4.13;2.20;;;;;;;11.97;41.94;99474.23;257402;1118;114796;-81
2021/04/09 11:15:15;;;;;;;3.15;1.83;;;;;;;12.19;42.02;99462.24;257683;1119;114670;-79
2021/04/09 11:20:24;;;;;;;4.00;1.75;;;;;;;12.35;41.66;99449.66;257519;1118;114874;-72
2021/04/09 11:25:41;;;;;;;5.00;2.20;;;;;;;12.52;40.55;99452.13;257918;1118;114757;-71
2021/04/09 11:30:44;;;;;;;4.10;2.20;;;;;;;12.72;41.26;99447.33;257629;1118;114676;-71
2021/04/09 11:35:46;;;;;;;4.85;2.10;;;;;;;12.88;40.63;99437.38;258019;1118;115145;-71
2021/04/09 11:40:49;;;;;;;6.13;2.00;;;;;;;12.98;39.92;99434.97;258281;1119;115187;-80
2021/04/09 11:45:52;;;;;;;5.05;2.00;;;;;;;13.09;39.68;99432.44;258108;1119;114675;-79
2021/04/09 11:51:16;;;;;;;5.23;1.95;;;;;;;13.28;40.43;99432.12;256351;1119;114862;-79
2021/04/09 11:56:39;;;;;;;4.03;1.90;;;;;;;13.44;39.67;99419.41;258257;1119;114604;-79
2021/04/09 12:01:43;;;;;;;4.73;2.08;;;;;;;13.58;39.18;99412.27;258281;1119;114758;-70
2021/04/09 12:06:45;;;;;;;6.18;1.90;;;;;;;13.71;38.63;99407.79;258015;1120;114444;-70
2021/04/09 12:11:49;;;;;;;4.55;2.00;;;;;;;13.82;39.08;99407.89;258285;1119;114879;-79
2021/04/09 12:16:53;;;;;;;5.93;1.88;;;;;;;13.99;38.51;99395.16;258360;1119;114430;-80
2021/04/09 12:21:56;;;;;;;4.15;2.00;;;;;;;14.10;38.10;99372.05;258176;1119;114575;-71
2021/04/09 12:27:00;;;;;;;6.28;2.13;;;;;;;14.16;38.10;99382.32;258012;1119;114404;-71
2021/04/09 12:32:04;;;;;;;4.60;1.90;;;;;;;14.14;37.41;99388.74;258297;1119;115399;-71
2021/04/09 12:37:07;;;;;;;5.80;1.98;;;;;;;14.12;37.64;99366.56;258168;1118;114808;-71
2021/04/09 12:42:10;;;;;;;6.58;1.98;;;;;;;14.08;37.81;99357.05;258236;1118;114644;-71
2021/04/09 12:47:13;;;;;;;4.78;1.90;;;;;;;14.02;36.77;99354.81;258037;1120;114639;-71
2021/04/09 12:52:16;;;;;;;5.05;2.10;;;;;;;13.88;36.76;99367.34;258293;1119;114596;-72
2021/04/09 12:57:19;;;;;;;6.38;2.15;;;;;;;13.80;36.90;99350.98;258291;1119;114588;-78
2021/04/09 13:02:22;;;;;;;3.23;1.90;;;;;;;13.74;36.80;99346.06;254934;1119;114857;-77
2021/04/09 13:07:25;;;;;;;4.60;2.27;;;;;;;13.63;35.91;99352.16;252216;1119;114715;-79
2021/04/09 13:12:28;;;;;;;3.35;1.90;;;;;;;13.64;37.04;99339.64;258345;1118;114750;-72
2021/04/09 13:17:32;;;;;;;4.58;1.95;;;;;;;13.73;36.71;99323.81;257799;1119;114909;-71
2021/04/09 13:22:36;;;;;;;4.30;1.93;;;;;;;13.95;36.14;99308.90;258326;1119;114161;-72
2021/04/09 13:27:42;;;;;;;8.20;1.80;;;;;;;14.25;36.46;99302.30;255656;1119;114938;-79
2021/04/09 13:32:45;;;;;;;3.75;1.98;;;;;;;14.40;36.16;99294.02;256886;1118;114542;-79
2021/04/09 13:37:48;;;;;;;3.65;1.68;;;;;;;14.65;36.05;99286.86;257686;1119;114645;-79
2021/04/09 13:42:51;;;;;;;3.93;1.87;;;;;;;14.92;36.09;99278.56;255278;1119;114429;-79
2021/04/09 13:47:55;;;;;;;5.40;1.80;;;;;;;15.09;35.77;99272.77;255891;1119;115134;-78
2021/04/09 13:52:58;;;;;;;6.58;1.93;;;;;;;15.29;35.78;99262.34;257820;1119;114336;-79
2021/04/09 13:58:02;;;;;;;3.68;1.80;;;;;;;15.45;35.13;99267.33;256977;1119;114729;-79
2021/04/09 14:03:05;;;;;;;6.10;2.03;;;;;;;15.54;34.96;99262.10;256726;1118;114474;-81
2021/04/09 14:08:10;;;;;;;5.60;2.15;;;;;;;15.49;34.62;99247.34;254874;1118;115111;-80
2021/04/09 14:13:13;;;;;;;5.73;1.85;;;;;;;15.27;34.23;99253.55;258451;1119;114417;-79
2021/04/09 14:18:16;;;;;;;3.37;2.00;;;;;;;15.11;34.71;99244.03;251674;1119;115016;-80
2021/04/09 14:23:19;;;;;;;4.55;1.93;;;;;;;14.90;34.24;99237.62;256549;1119;114373;-79
2021/04/09 14:28:22;;;;;;;5.40;1.98;;;;;;;14.64;34.30;99250.34;253988;1119;114897;-70
2021/04/09 14:33:26;;;;;;;3.88;2.10;;;;;;;14.35;33.75;99239.94;258221;1119;114319;-70
2021/04/09 14:38:30;;;;;;;3.95;2.10;;;;;;;14.12;34.13;99246.13;258219;1118;114777;-72
2021/04/09 14:43:33;;;;;;;3.68;1.98;;;;;;;13.91;34.26;99249.41;258286;1118;114830;-70
2021/04/09 14:48:36;;;;;;;5.13;2.00;;;;;;;13.73;33.75;99232.02;257854;1119;114480;-71
2021/04/09 14:53:39;;;;;;;3.50;1.98;;;;;;;13.57;34.05;99226.05;258084;1120;114861;-71
2021/04/09 14:58:42;;;;;;;4.68;2.35;;;;;;;13.47;33.79;99228.52;258302;1119;114172;-70
2021/04/09 15:03:45;;;;;;;4.83;2.23;;;;;;;13.39;34.85;99222.88;258334;1118;114660;-71
2021/04/09 15:08:48;;;;;;;4.83;2.05;;;;;;;13.27;34.58;99221.91;258092;1119;114676;-71
2021/04/09 15:13:52;;;;;;;4.08;2.25;;;;;;;13.20;34.49;99218.77;258073;1118;114571;-70
2021/04/09 15:18:55;;;;;;;6.58;2.13;;;;;;;13.17;34.54;99210.11;258375;1118;114684;-71
2021/04/09 15:24:00;;;;;;;4.10;2.00;;;;;;;13.13;33.84;99220.16;258276;1119;114460;-71
2021/04/09 15:29:03;;;;;;;5.80;2.40;;;;;;;13.10;34.36;99214.18;256589;1119;114478;-72
2021/04/09 15:34:06;;;;;;;4.67;2.00;;;;;;;13.01;34.23;99216.54;257335;1119;114709;-71
2021/04/09 15:39:09;;;;;;;6.83;2.28;;;;;;;12.91;33.76;99212.80;258264;1117;114346;-70
2021/04/09 15:44:25;;;;;;;6.05;2.60;;;;;;;12.86;34.10;99196.22;258103;1119;114562;-71
2021/04/09 15:49:30;;;;;;;3.07;1.93;;;;;;;12.90;34.29;99191.52;258256;1119;114339;-78
2021/04/09 15:54:33;;;;;;;4.57;2.40;;;;;;;12.91;34.31;99191.42;255708;1119;114689;-70
2021/04/09 15:59:36;;;;;;;6.98;2.10;;;;;;;12.92;34.46;99190.45;258352;1120;114398;-80
2021/04/09 16:04:39;;;;;;;4.25;2.35;;;;;;;12.97;34.24;99190.97;258260;1118;114831;-72
2021/04/09 16:09:43;;;;;;;4.40;2.30;;;;;;;13.06;34.63;99192.16;258173;1119;114616;-72
2021/04/09 16:14:46;;;;;;;3.95;2.28;;;;;;;13.32;34.62;99179.68;255541;1119;114912;-80
2021/04/09 16:19:51;;;;;;;5.80;2.27;;;;;;;13.54;33.71;99175.47;254166;1119;114800;-80
2021/04/09 16:24:55;;;;;;;2.95;2.15;;;;;;;13.51;34.13;99170.33;252117;1119;114668;-78
2021/04/09 16:29:58;;;;;;;5.17;2.60;;;;;;;13.41;34.44;99170.98;251078;1118;115043;-79
2021/04/09 16:35:02;;;;;;;5.17;2.20;;;;;;;13.22;34.05;99160.73;254252;1119;115082;-72
2021/04/09 16:40:10;;;;;;;47.03;29.13;;;;;;;13.21;34.56;99167.05;257536;1119;115011;-73
2021/04/09 16:45:13;;;;;;;57.25;37.18;;;;;;;13.51;35.43;99164.98;257845;1118;115066;-73
2021/04/09 16:50:17;;;;;;;23.88;15.85;;;;;;;13.88;35.94;99153.30;258128;1119;114628;-83
2021/04/09 16:55:20;;;;;;;12.78;7.73;;;;;;;14.13;35.15;99151.48;256410;1118;115785;-82
2021/04/09 17:00:23;;;;;;;12.95;5.45;;;;;;;14.07;34.52;99139.43;254333;1119;115141;-80
2021/04/09 17:05:25;;;;;;;6.80;3.33;;;;;;;14.23;34.54;99143.61;257169;1120;114838;-84
2021/04/09 17:10:29;;;;;;;7.03;3.00;;;;;;;13.95;33.92;99143.86;254810;1119;114650;-72
2021/04/09 17:15:34;;;;;;;9.00;2.65;;;;;;;13.53;34.36;99155.05;256217;1119;114640;-73
2021/04/09 17:20:36;;;;;;;7.80;3.10;;;;;;;13.19;33.96;99146.73;258028;1118;114592;-73
2021/04/09 17:25:40;;;;;;;7.80;3.05;;;;;;;12.91;34.20;99159.38;258359;1118;114727;-72
2021/04/09 17:30:43;;;;;;;5.60;2.80;;;;;;;12.68;34.75;99155.61;258298;1119;115241;-73
2021/04/09 17:35:46;;;;;;;6.68;3.35;;;;;;;12.50;34.79;99165.74;258162;1119;115266;-80
2021/04/09 17:40:48;;;;;;;7.60;3.23;;;;;;;12.39;34.88;99160.26;253636;1120;114183;-79
2021/04/09 17:45:51;;;;;;;8.35;3.25;;;;;;;12.28;34.33;99165.47;258438;1120;114347;-71
2021/04/09 17:50:54;;;;;;;8.95;3.90;;;;;;;12.24;35.21;99166.64;258219;1118;114450;-81
2021/04/09 17:55:56;;;;;;;14.63;4.25;;;;;;;12.18;34.92;99170.56;257198;1119;115255;-71
2021/04/09 18:01:00;;;;;;;10.20;3.60;;;;;;;12.13;34.86;99174.52;258311;1118;115115;-72
2021/04/09 18:06:03;;;;;;;9.90;3.87;;;;;;;11.99;35.68;99181.61;258189;1119;114511;-72
2021/04/09 18:11:06;;;;;;;8.28;4.00;;;;;;;11.83;35.90;99178.19;257345;1119;115170;-71
2021/04/09 18:16:09;;;;;;;13.23;5.25;;;;;;;11.75;35.99;99173.36;256144;1119;114514;-79
2021/04/09 18:21:12;;;;;;;11.23;6.25;;;;;;;11.72;35.97;99178.01;256672;1119;114811;-72
2021/04/09 18:26:15;;;;;;;16.90;7.23;;;;;;;11.67;36.13;99172.13;258369;1118;115772;-72
2021/04/09 18:31:22;;;;;;;19.23;7.40;;;;;;;11.65;36.33;99168.70;256884;1119;115148;-82
2021/04/09 18:36:25;;;;;;;16.83;7.43;;;;;;;11.54;36.30;99175.57;252348;1119;114965;-74
2021/04/09 18:41:28;;;;;;;18.20;7.70;;;;;;;11.45;36.32;99177.99;257954;1119;116478;-71
2021/04/09 18:46:31;;;;;;;18.05;8.30;;;;;;;11.35;36.53;99177.71;258249;1119;114960;-72
2021/04/09 18:51:33;;;;;;;19.80;8.45;;;;;;;11.28;36.52;99173.73;257705;1119;114492;-71
2021/04/09 18:56:37;;;;;;;18.58;8.53;;;;;;;11.24;36.40;99170.40;258342;1119;115737;-74
2021/04/09 19:01:40;;;;;;;15.93;8.93;;;;;;;11.21;36.58;99169.70;257942;1120;115058;-81
2021/04/09 19:06:44;;;;;;;13.15;7.40;;;;;;;11.16;36.85;99169.16;254469;1120;115290;-83
2021/04/09 19:11:47;;;;;;;17.90;8.78;;;;;;;11.12;36.96;99169.34;256437;1120;114870;-82
2021/04/09 19:16:52;;;;;;;17.50;8.58;;;;;;;11.09;36.66;99158.88;254796;1119;115198;-80
2021/04/09 19:21:55;;;;;;;16.40;7.93;;;;;;;11.02;36.76;99160.20;253948;1119;115972;-80
2021/04/09 19:26:57;;;;;;;15.78;7.78;;;;;;;10.96;36.62;99160.58;257676;1118;115493;-72
2021/04/09 19:32:01;;;;;;;17.63;8.03;;;;;;;10.91;36.41;99154.70;256576;1119;114675;-80
2021/04/09 19:37:04;;;;;;;13.70;7.18;;;;;;;10.88;37.12;99149.56;258188;1119;115625;-74
2021/04/09 19:42:07;;;;;;;17.05;8.08;;;;;;;10.83;36.62;99148.97;256846;1119;114900;-72
2021/04/09 19:47:10;;;;;;;14.27;7.00;;;;;;;10.76;36.61;99143.16;258182;1119;114828;-71
2021/04/09 19:52:13;;;;;;;14.80;7.93;;;;;;;10.73;36.81;99137.17;256465;1119;114962;-79
2021/04/09 19:57:16;;;;;;;15.53;7.65;;;;;;;10.70;37.34;99143.56;258241;1119;115800;-72
2021/04/09 20:02:19;;;;;;;14.83;7.90;;;;;;;10.65;37.24;99142.97;258320;1119;114853;-71
2021/04/09 20:07:22;;;;;;;18.95;9.00;;;;;;;10.61;37.38;99133.47;258091;1118;114505;-79
2021/04/09 20:12:25;;;;;;;17.13;9.50;;;;;;;10.60;37.66;99137.09;258367;1118;115395;-79
2021/04/09 20:17:28;;;;;;;21.35;11.05;;;;;;;10.55;37.17;99136.49;258347;1119;114677;-78
2021/04/09 20:22:31;;;;;;;25.53;11.73;;;;;;;10.52;37.55;99128.69;258013;1119;115803;-71
2021/04/09 20:27:34;;;;;;;21.00;11.08;;;;;;;10.47;37.46;99131.64;258253;1119;114909;-70
2021/04/09 20:32:40;;;;;;;17.55;9.93;;;;;;;10.44;37.72;99134.48;258231;1118;114972;-78
2021/04/09 20:37:43;;;;;;;21.80;9.88;;;;;;;10.41;37.63;99132.85;258258;1119;115281;-78
2021/04/09 20:42:46;;;;;;;18.28;10.58;;;;;;;10.37;37.97;99141.13;257331;1119;114949;-78
2021/04/09 20:47:51;;;;;;;21.63;10.53;;;;;;;10.34;37.99;99130.66;258345;1118;114810;-69
2021/04/09 20:52:54;;;;;;;21.00;10.23;;;;;;;10.31;37.72;99130.84;258156;1119;116316;-78
2021/04/09 20:58:01;;;;;;;17.58;9.95;;;;;;;10.28;38.28;99128.36;256605;1119;114854;-78
2021/04/09 21:03:04;;;;;;;20.18;11.75;;;;;;;10.18;38.08;99128.01;258113;1119;115406;-70
2021/04/09 21:08:09;;;;;;;28.50;11.60;;;;;;;10.14;37.89;99124.67;258019;1119;115239;-78
2021/04/09 21:13:13;;;;;;;25.55;11.60;;;;;;;10.12;38.07;99129.25;258181;1118;115137;-78
2021/04/09 21:18:16;;;;;;;21.57;10.37;;;;;;;10.10;38.11;99117.83;255079;1119;115777;-77
2021/04/09 21:23:20;;;;;;;23.30;11.28;;;;;;;10.06;38.45;99115.45;258330;1118;115168;-79
2021/04/09 21:28:23;;;;;;;28.65;11.28;;;;;;;10.00;38.13;99115.81;258359;1118;116051;-78
2021/04/09 21:33:26;;;;;;;20.93;10.95;;;;;;;9.92;38.15;99121.58;257531;1119;116119;-78
2021/04/09 21:38:29;;;;;;;18.13;10.37;;;;;;;9.85;38.30;99120.19;258072;1118;114971;-71
2021/04/09 21:43:31;;;;;;;20.70;10.90;;;;;;;9.79;38.15;99112.59;257852;1120;115617;-70
2021/04/09 21:48:34;;;;;;;21.23;11.67;;;;;;;9.77;38.45;99117.13;258341;1118;114540;-70
2021/04/09 21:53:38;;;;;;;39.70;12.40;;;;;;;9.75;38.50;99114.58;258254;1118;114587;-78
2021/04/09 21:58:40;;;;;;;30.40;11.73;;;;;;;9.75;38.68;99111.92;258004;1119;115787;-70
2021/04/09 22:03:43;;;;;;;30.65;12.95;;;;;;;9.71;39.02;99113.02;258070;1118;114896;-70
2021/04/09 22:08:46;;;;;;;36.73;12.47;;;;;;;9.56;39.47;99106.78;258333;1118;115078;-72
2021/04/09 22:13:49;;;;;;;44.73;13.08;;;;;;;9.42;39.60;99109.38;258062;1119;115043;-70
2021/04/09 22:18:52;;;;;;;30.68;12.50;;;;;;;9.28;40.36;99101.33;258378;1118;114888;-78
2021/04/09 22:23:54;;;;;;;34.95;12.33;;;;;;;9.15;40.13;99101.99;257388;1119;114820;-70
2021/04/09 22:28:57;;;;;;;32.50;12.88;;;;;;;9.04;40.51;99101.73;258332;1119;114676;-70
2021/04/09 22:34:00;;;;;;;40.73;14.38;;;;;;;8.90;41.31;99102.48;257566;1119;114785;-78
2021/04/09 22:39:04;;;;;;;61.35;16.90;;;;;;;8.78;41.69;99103.14;258349;1119;114776;-70
2021/04/09 22:44:07;;;;;;;74.58;16.60;;;;;;;8.65;41.03;99105.58;257968;1119;114761;-70
2021/04/09 22:49:09;;;;;;;85.70;17.43;;;;;;;8.53;41.37;99093.84;258263;1118;114666;-70
2021/04/09 22:54:12;;;;;;;53.45;13.85;;;;;;;8.45;41.91;99095.16;257926;1119;114977;-70
2021/04/09 22:59:17;;;;;;;39.08;13.15;;;;;;;8.34;41.85;99093.05;258240;1119;114618;-78
2021/04/09 23:04:23;;;;;;;35.53;12.63;;;;;;;8.23;42.48;99085.66;258089;1117;114768;-77
2021/04/09 23:09:25;;;;;;;29.08;11.75;;;;;;;8.17;42.26;99085.11;257801;1119;114863;-80
2021/04/09 23:14:29;;;;;;;28.50;12.60;;;;;;;8.11;43.18;99088.07;256364;1118;114530;-80